Time;durP1;ratioP1;P1;durP2;ratioP2;P2;SDS_P1;SDS_P2;PMS_P1;PMS_P2;Temp;Humidity;BMP_temperature;BMP_pressure;BME280_temperature;BME280_humidity;BME280_pressure;Samples;Min_cycle;Max_cycle;Signal;HPM_P1;HPM_P2
2023/07/23 00:00:11;;;;;;;5.33;3.50;;;;;;;;;;624918;23;1342;-79
2023/07/23 00:00:27;;;;;;;4.82;3.60;;;;;;;;;;622565;23;890;-78
2023/07/23 00:00:47;;;;;;;4.80;3.50;;;;;;;;;;624597;23;1278;-78
2023/07/23 00:01:02;;;;;;;6.43;3.50;;;;;;;;;;626408;23;1267;-78
2023/07/23 00:01:18;;;;;;;6.33;3.40;;;;;;;;;;629109;23;891;-77
2023/07/23 00:01:33;;;;;;;4.68;3.35;;;;;;;;;;631122;23;1302;-79
2023/07/23 00:01:48;;;;;;;4.27;3.50;;;;;;;;;;630447;23;1031;-79
2023/07/23 00:02:04;;;;;;;4.70;3.33;;;;;;;;;;630322;23;859;-79
2023/07/23 00:02:19;;;;;;;5.28;3.20;;;;;;;;;;626962;23;1163;-78
2023/07/23 00:02:34;;;;;;;4.97;3.10;;;;;;;;;;627894;23;1086;-79
2023/07/23 00:02:50;;;;;;;5.20;3.20;;;;;;;;;;628291;23;907;-78
2023/07/23 00:03:07;;;;;;;5.63;3.30;;;;;;;;;;630283;23;863;-79
2023/07/23 00:03:23;;;;;;;4.65;3.13;;;;;;;;;;630615;23;1040;-79
2023/07/23 00:03:38;;;;;;;5.30;3.17;;;;;;;;;;631123;23;1250;-78
2023/07/23 00:03:53;;;;;;;4.93;3.07;;;;;;;;;;627973;23;1235;-78
2023/07/23 00:04:09;;;;;;;4.17;2.90;;;;;;;;;;628929;23;905;-78
2023/07/23 00:04:24;;;;;;;4.63;3.23;;;;;;;;;;630725;23;999;-78
2023/07/23 00:04:39;;;;;;;5.55;3.45;;;;;;;;;;631006;23;937;-79
2023/07/23 00:04:54;;;;;;;5.23;3.33;;;;;;;;;;630454;23;907;-78
2023/07/23 00:05:10;;;;;;;3.67;2.93;;;;;;;;;;627974;23;1284;-78
2023/07/23 00:05:25;;;;;;;3.47;2.80;;;;;;;;;;629305;23;895;-78
2023/07/23 00:05:43;;;;;;;4.13;3.00;;;;;;;;;;627456;23;1309;-76
2023/07/23 00:05:58;;;;;;;5.38;3.10;;;;;;;;;;631429;23;859;-78
2023/07/23 00:06:14;;;;;;;4.90;3.03;;;;;;;;;;630654;23;796;-78
2023/07/23 00:06:29;;;;;;;4.63;3.10;;;;;;;;;;632267;23;1259;-78
2023/07/23 00:06:44;;;;;;;5.63;3.22;;;;;;;;;;630678;23;815;-78
2023/07/23 00:07:00;;;;;;;5.20;3.20;;;;;;;;;;629102;23;1645;-78
2023/07/23 00:07:15;;;;;;;3.87;3.10;;;;;;;;;;631612;23;1302;-79
2023/07/23 00:07:30;;;;;;;4.40;3.00;;;;;;;;;;630443;23;1950;-78
2023/07/23 00:07:46;;;;;;;4.37;2.90;;;;;;;;;;627643;23;1322;-78
2023/07/23 00:08:01;;;;;;;3.57;2.93;;;;;;;;;;625517;23;1288;-78
2023/07/23 00:08:16;;;;;;;3.83;2.97;;;;;;;;;;625707;23;911;-78
2023/07/23 00:08:31;;;;;;;3.80;2.87;;;;;;;;;;625635;23;1120;-78
2023/07/23 00:08:47;;;;;;;3.63;3.03;;;;;;;;;;624796;23;938;-79
2023/07/23 00:09:03;;;;;;;4.33;3.20;;;;;;;;;;625311;23;1088;-78
2023/07/23 00:09:18;;;;;;;4.10;3.00;;;;;;;;;;628804;23;824;-78
2023/07/23 00:09:33;;;;;;;5.22;3.03;;;;;;;;;;628159;23;1333;-78
2023/07/23 00:09:49;;;;;;;5.07;3.10;;;;;;;;;;632510;23;886;-78
2023/07/23 00:10:05;;;;;;;3.40;3.03;;;;;;;;;;631144;23;1295;-78
2023/07/23 00:10:21;;;;;;;4.40;3.20;;;;;;;;;;631159;23;847;-78
2023/07/23 00:10:36;;;;;;;4.87;3.20;;;;;;;;;;630940;23;855;-78
2023/07/23 00:10:57;;;;;;;4.85;3.03;;;;;;;;;;630614;23;977;-78
2023/07/23 00:11:13;;;;;;;4.50;3.00;;;;;;;;;;630555;23;883;-78
2023/07/23 00:11:28;;;;;;;3.40;2.93;;;;;;;;;;632837;23;1167;-78
2023/07/23 00:11:44;;;;;;;4.32;3.10;;;;;;;;;;630993;23;1170;-78
2023/07/23 00:12:00;;;;;;;5.20;3.13;;;;;;;;;;631110;23;1191;-78
2023/07/23 00:12:15;;;;;;;4.43;2.97;;;;;;;;;;631077;23;938;-78
2023/07/23 00:12:31;;;;;;;3.65;2.90;;;;;;;;;;628756;23;1408;-79
2023/07/23 00:12:47;;;;;;;3.40;2.80;;;;;;;;;;628037;23;957;-78
2023/07/23 00:13:02;;;;;;;4.03;2.90;;;;;;;;;;628632;23;883;-78
2023/07/23 00:13:17;;;;;;;4.60;3.00;;;;;;;;;;627904;23;985;-78
2023/07/23 00:13:33;;;;;;;5.83;2.90;;;;;;;;;;625849;23;1180;-78
2023/07/23 00:13:48;;;;;;;6.70;2.93;;;;;;;;;;626241;23;1197;-77
2023/07/23 00:14:03;;;;;;;5.03;3.00;;;;;;;;;;628322;23;875;-78
2023/07/23 00:14:19;;;;;;;4.50;3.00;;;;;;;;;;625325;23;1344;-79
2023/07/23 00:14:34;;;;;;;4.60;3.00;;;;;;;;;;628762;23;1116;-79
2023/07/23 00:14:50;;;;;;;4.97;3.10;;;;;;;;;;628781;23;1365;-77
2023/07/23 00:15:05;;;;;;;4.60;2.80;;;;;;;;;;627776;23;1267;-78
2023/07/23 00:15:21;;;;;;;3.90;2.75;;;;;;;;;;629159;23;1173;-78
2023/07/23 00:15:36;;;;;;;4.03;2.90;;;;;;;;;;632276;23;772;-78
2023/07/23 00:15:51;;;;;;;4.43;2.85;;;;;;;;;;631746;23;1175;-78
2023/07/23 00:16:07;;;;;;;5.57;3.00;;;;;;;;;;631225;23;1188;-79
2023/07/23 00:16:23;;;;;;;4.60;2.90;;;;;;;;;;631380;23;871;-78
2023/07/23 00:16:38;;;;;;;4.75;2.90;;;;;;;;;;628436;23;1283;-78
2023/07/23 00:16:54;;;;;;;7.40;3.07;;;;;;;;;;626092;23;1139;-79
2023/07/23 00:17:09;;;;;;;6.33;3.00;;;;;;;;;;622449;23;1612;-79
2023/07/23 00:17:25;;;;;;;4.23;2.87;;;;;;;;;;622852;23;1009;-77
2023/07/23 00:17:41;;;;;;;4.00;2.70;;;;;;;;;;623062;23;1402;-78
2023/07/23 00:17:58;;;;;;;4.18;2.85;;;;;;;;;;626418;23;1198;-78
2023/07/23 00:18:13;;;;;;;5.03;3.03;;;;;;;;;;629272;23;898;-78
2023/07/23 00:18:28;;;;;;;6.03;2.97;;;;;;;;;;627211;23;1548;-78
2023/07/23 00:18:44;;;;;;;5.97;3.05;;;;;;;;;;625743;23;1203;-78
2023/07/23 00:18:59;;;;;;;5.03;3.00;;;;;;;;;;625892;23;1469;-78
2023/07/23 00:19:19;;;;;;;4.47;3.03;;;;;;;;;;628492;23;1192;-79
2023/07/23 00:19:34;;;;;;;4.90;2.90;;;;;;;;;;629124;23;1040;-78
2023/07/23 00:19:49;;;;;;;4.73;2.80;;;;;;;;;;628633;23;1150;-78
2023/07/23 00:20:09;;;;;;;3.77;2.80;;;;;;;;;;625013;23;1179;-78
2023/07/23 00:20:25;;;;;;;5.60;3.00;;;;;;;;;;628200;23;932;-78
2023/07/23 00:20:40;;;;;;;5.20;3.10;;;;;;;;;;627689;23;1199;-78
2023/07/23 00:20:55;;;;;;;4.80;2.80;;;;;;;;;;629898;23;899;-78
2023/07/23 00:21:10;;;;;;;4.43;2.83;;;;;;;;;;627854;23;1348;-78
2023/07/23 00:21:26;;;;;;;4.68;3.15;;;;;;;;;;628724;23;1022;-78
2023/07/23 00:21:41;;;;;;;5.43;3.10;;;;;;;;;;625179;23;1264;-78
2023/07/23 00:21:56;;;;;;;5.13;2.90;;;;;;;;;;626676;23;808;-78
2023/07/23 00:22:12;;;;;;;4.93;2.90;;;;;;;;;;625305;23;1125;-78
2023/07/23 00:22:27;;;;;;;3.77;3.00;;;;;;;;;;623235;23;1267;-78
2023/07/23 00:22:43;;;;;;;3.30;2.80;;;;;;;;;;625891;23;808;-78
2023/07/23 00:22:58;;;;;;;5.10;2.77;;;;;;;;;;624940;23;1279;-79
2023/07/23 00:23:13;;;;;;;6.20;2.90;;;;;;;;;;625355;23;1283;-78
2023/07/23 00:23:29;;;;;;;4.83;3.00;;;;;;;;;;622820;23;1295;-78
2023/07/23 00:23:44;;;;;;;3.80;3.10;;;;;;;;;;626092;23;883;-78
2023/07/23 00:23:59;;;;;;;4.10;3.10;;;;;;;;;;625344;23;1099;-78
2023/07/23 00:24:19;;;;;;;4.57;3.03;;;;;;;;;;622416;23;1315;-78
2023/07/23 00:24:34;;;;;;;5.40;3.03;;;;;;;;;;626269;23;964;-78
2023/07/23 00:24:56;;;;;;;5.57;2.92;;;;;;;;;;626988;23;792;-78
2023/07/23 00:25:32;;;;;;;5.07;2.90;;;;;;;;;;631225;23;910;-79
2023/07/23 00:25:47;;;;;;;5.80;2.90;;;;;;;;;;631678;23;1297;-78
2023/07/23 00:26:03;;;;;;;4.83;2.90;;;;;;;;;;629177;23;1365;-78
2023/07/23 00:26:18;;;;;;;3.45;2.90;;;;;;;;;;632050;23;904;-78
2023/07/23 00:26:33;;;;;;;4.63;3.00;;;;;;;;;;629784;23;1185;-79
2023/07/23 00:26:48;;;;;;;5.33;3.03;;;;;;;;;;626379;23;1263;-77
2023/07/23 00:27:04;;;;;;;5.13;2.93;;;;;;;;;;622913;23;1151;-78
2023/07/23 00:27:19;;;;;;;4.63;2.92;;;;;;;;;;623522;23;1930;-79
2023/07/23 00:27:55;;;;;;;4.00;2.83;;;;;;;;;;623845;23;840;-77
2023/07/23 00:28:10;;;;;;;5.82;3.10;;;;;;;;;;621897;23;1328;-79
2023/07/23 00:28:25;;;;;;;5.00;2.97;;;;;;;;;;624116;23;864;-78
2023/07/23 00:28:41;;;;;;;3.80;2.80;;;;;;;;;;623866;23;1196;-79
2023/07/23 00:28:56;;;;;;;3.80;2.87;;;;;;;;;;627306;23;911;-79
2023/07/23 00:29:11;;;;;;;4.47;3.10;;;;;;;;;;626987;23;1440;-79
2023/07/23 00:29:27;;;;;;;4.77;3.10;;;;;;;;;;628178;23;1250;-79
2023/07/23 00:29:42;;;;;;;3.85;2.90;;;;;;;;;;624959;23;1239;-78
2023/07/23 00:29:57;;;;;;;3.57;2.90;;;;;;;;;;622874;23;1219;-79
2023/07/23 00:30:13;;;;;;;4.10;2.90;;;;;;;;;;623112;23;1275;-77
2023/07/23 00:30:28;;;;;;;5.00;2.80;;;;;;;;;;622468;23;1369;-78
2023/07/23 00:30:43;;;;;;;5.50;2.60;;;;;;;;;;625307;23;1415;-77
2023/07/23 00:30:59;;;;;;;5.13;2.73;;;;;;;;;;626261;23;1176;-78
2023/07/23 00:31:14;;;;;;;4.25;3.08;;;;;;;;;;625408;23;988;-78
2023/07/23 00:31:29;;;;;;;4.00;3.00;;;;;;;;;;625252;23;1173;-79
2023/07/23 00:31:45;;;;;;;4.13;2.80;;;;;;;;;;624950;23;789;-78
2023/07/23 00:32:00;;;;;;;7.95;2.90;;;;;;;;;;624006;23;1302;-79
2023/07/23 00:32:15;;;;;;;7.63;3.00;;;;;;;;;;628562;23;1268;-79
2023/07/23 00:32:30;;;;;;;4.17;2.93;;;;;;;;;;627863;23;1300;-78
2023/07/23 00:32:46;;;;;;;4.60;2.80;;;;;;;;;;627630;23;847;-79
2023/07/23 00:33:01;;;;;;;5.22;2.70;;;;;;;;;;631163;23;823;-78
2023/07/23 00:33:20;;;;;;;5.07;2.80;;;;;;;;;;627700;23;1144;-79
2023/07/23 00:33:35;;;;;;;3.45;2.80;;;;;;;;;;627722;23;954;-78
2023/07/23 00:33:50;;;;;;;4.57;2.93;;;;;;;;;;628427;23;1196;-78
2023/07/23 00:34:06;;;;;;;5.37;2.90;;;;;;;;;;627580;23;1266;-78
2023/07/23 00:34:22;;;;;;;5.47;3.05;;;;;;;;;;627648;23;934;-78
2023/07/23 00:34:58;;;;;;;4.55;3.00;;;;;;;;;;625332;23;1255;-78
2023/07/23 00:35:14;;;;;;;4.07;2.60;;;;;;;;;;626552;23;1216;-78
2023/07/23 00:35:29;;;;;;;4.22;2.80;;;;;;;;;;628591;23;823;-77
2023/07/23 00:35:44;;;;;;;3.43;2.90;;;;;;;;;;626864;23;1176;-78
2023/07/23 00:36:00;;;;;;;3.33;2.87;;;;;;;;;;628185;23;767;-78
2023/07/23 00:36:15;;;;;;;3.85;2.90;;;;;;;;;;628722;23;905;-78
2023/07/23 00:36:30;;;;;;;4.20;2.90;;;;;;;;;;626563;23;1748;-79
2023/07/23 00:36:46;;;;;;;4.67;3.07;;;;;;;;;;625842;23;1171;-79
2023/07/23 00:37:21;;;;;;;4.90;3.20;;;;;;;;;;625948;23;862;-77
2023/07/23 00:37:37;;;;;;;3.58;2.78;;;;;;;;;;629185;23;1511;-78
2023/07/23 00:37:52;;;;;;;3.83;2.63;;;;;;;;;;629050;23;1326;-78
2023/07/23 00:38:07;;;;;;;5.20;2.70;;;;;;;;;;625708;23;1160;-78
2023/07/23 00:38:22;;;;;;;5.90;2.90;;;;;;;;;;623626;23;1326;-78
2023/07/23 00:38:38;;;;;;;5.77;3.00;;;;;;;;;;623825;23;1163;-78
2023/07/23 00:38:53;;;;;;;6.38;3.05;;;;;;;;;;625145;23;1242;-78
2023/07/23 00:39:08;;;;;;;6.00;3.07;;;;;;;;;;625142;23;898;-78
2023/07/23 00:39:24;;;;;;;4.00;3.00;;;;;;;;;;622232;23;1200;-78
2023/07/23 00:39:39;;;;;;;4.25;2.80;;;;;;;;;;625559;23;1233;-78
2023/07/23 00:39:55;;;;;;;3.87;2.70;;;;;;;;;;626334;23;957;-79
2023/07/23 00:40:11;;;;;;;3.67;2.90;;;;;;;;;;628041;23;1005;-78
2023/07/23 00:40:26;;;;;;;5.63;3.00;;;;;;;;;;628419;23;1406;-78
2023/07/23 00:40:41;;;;;;;5.22;2.97;;;;;;;;;;628415;23;842;-78
2023/07/23 00:40:57;;;;;;;5.03;3.10;;;;;;;;;;628259;23;799;-78
2023/07/23 00:41:12;;;;;;;6.40;3.10;;;;;;;;;;627694;23;1131;-79
2023/07/23 00:41:27;;;;;;;4.72;2.85;;;;;;;;;;628559;23;1208;-79
2023/07/23 00:41:43;;;;;;;3.47;2.73;;;;;;;;;;627664;23;1602;-78
2023/07/23 00:41:58;;;;;;;3.97;2.80;;;;;;;;;;627762;23;906;-78
2023/07/23 00:42:13;;;;;;;4.17;2.93;;;;;;;;;;624742;23;1148;-78
2023/07/23 00:42:29;;;;;;;4.68;3.00;;;;;;;;;;624789;23;1180;-79
2023/07/23 00:42:44;;;;;;;4.97;3.10;;;;;;;;;;621907;23;1204;-79
2023/07/23 00:43:00;;;;;;;3.75;2.97;;;;;;;;;;621644;23;958;-79
2023/07/23 00:43:16;;;;;;;3.45;2.80;;;;;;;;;;622238;23;1362;-79
2023/07/23 00:43:31;;;;;;;3.43;2.63;;;;;;;;;;625565;23;1262;-78
2023/07/23 00:43:46;;;;;;;4.38;2.60;;;;;;;;;;628722;23;1075;-78
2023/07/23 00:44:03;;;;;;;4.73;2.90;;;;;;;;;;628364;23;1175;-78
2023/07/23 00:44:18;;;;;;;3.53;2.92;;;;;;;;;;627192;23;1285;-79
2023/07/23 00:44:34;;;;;;;3.50;2.73;;;;;;;;;;626116;23;1300;-78
2023/07/23 00:44:49;;;;;;;7.35;2.85;;;;;;;;;;625843;23;1188;-78
2023/07/23 00:45:05;;;;;;;7.22;3.00;;;;;;;;;;625307;23;948;-78
2023/07/23 00:45:22;;;;;;;4.33;3.10;;;;;;;;;;627576;23;957;-78
2023/07/23 00:45:38;;;;;;;4.33;3.00;;;;;;;;;;625612;23;843;-78
2023/07/23 00:45:53;;;;;;;4.13;3.00;;;;;;;;;;625849;23;1163;-79
2023/07/23 00:46:09;;;;;;;5.47;3.10;;;;;;;;;;624791;23;1192;-79
2023/07/23 00:46:24;;;;;;;5.17;3.10;;;;;;;;;;626130;23;902;-78
2023/07/23 00:46:40;;;;;;;3.90;3.00;;;;;;;;;;626362;23;1291;-78
2023/07/23 00:46:58;;;;;;;4.73;2.90;;;;;;;;;;628028;23;823;-78
2023/07/23 00:47:13;;;;;;;4.10;2.80;;;;;;;;;;627823;23;985;-79
2023/07/23 00:47:28;;;;;;;4.03;3.00;;;;;;;;;;625108;23;1971;-80
2023/07/23 00:47:44;;;;;;;4.75;3.00;;;;;;;;;;624918;23;1279;-78
2023/07/23 00:47:59;;;;;;;4.93;2.90;;;;;;;;;;626385;23;808;-79
2023/07/23 00:48:15;;;;;;;4.90;3.15;;;;;;;;;;624638;23;1188;-79
2023/07/23 00:48:30;;;;;;;4.50;3.17;;;;;;;;;;627257;23;1323;-78
2023/07/23 00:48:46;;;;;;;4.47;3.03;;;;;;;;;;625515;23;1443;-78
2023/07/23 00:49:01;;;;;;;5.00;3.30;;;;;;;;;;625015;23;859;-78
2023/07/23 00:49:17;;;;;;;4.97;3.40;;;;;;;;;;626137;23;827;-78
2023/07/23 00:49:32;;;;;;;4.80;3.40;;;;;;;;;;626413;23;1146;-78
2023/07/23 00:49:48;;;;;;;5.07;3.40;;;;;;;;;;628157;23;895;-78
2023/07/23 00:50:03;;;;;;;4.50;3.22;;;;;;;;;;628490;23;867;-78
2023/07/23 00:50:19;;;;;;;3.80;2.95;;;;;;;;;;629006;23;1306;-77
2023/07/23 00:50:35;;;;;;;3.97;2.88;;;;;;;;;;628684;23;969;-77
2023/07/23 00:50:51;;;;;;;5.10;2.90;;;;;;;;;;630552;23;1045;-78
2023/07/23 00:51:07;;;;;;;6.20;2.90;;;;;;;;;;630284;23;945;-78
2023/07/23 00:51:22;;;;;;;5.93;2.88;;;;;;;;;;628369;23;1430;-78
2023/07/23 00:51:38;;;;;;;4.18;2.85;;;;;;;;;;627610;23;1276;-80
2023/07/23 00:51:53;;;;;;;3.80;3.00;;;;;;;;;;630718;23;1179;-79
2023/07/23 00:52:49;;;;;;;4.40;3.08;;;;;;;;;;628327;23;1328;-79
2023/07/23 00:53:05;;;;;;;4.38;2.90;;;;;;;;;;627544;23;1070;-78
2023/07/23 00:53:21;;;;;;;4.95;2.80;;;;;;;;;;625754;23;1208;-78
2023/07/23 00:53:36;;;;;;;5.30;2.70;;;;;;;;;;627695;23;1239;-78
2023/07/23 00:53:52;;;;;;;5.17;2.90;;;;;;;;;;624987;23;1093;-78
2023/07/23 00:54:07;;;;;;;4.53;3.05;;;;;;;;;;627652;23;1231;-78
2023/07/23 00:54:23;;;;;;;4.67;3.00;;;;;;;;;;624890;23;1200;-77
2023/07/23 00:54:39;;;;;;;4.15;2.83;;;;;;;;;;625595;23;981;-77
2023/07/23 00:54:54;;;;;;;4.38;3.00;;;;;;;;;;625172;23;847;-78
2023/07/23 00:55:10;;;;;;;5.20;3.15;;;;;;;;;;625706;23;1425;-78
2023/07/23 00:55:26;;;;;;;5.10;2.93;;;;;;;;;;627656;23;784;-79
2023/07/23 00:55:41;;;;;;;4.47;2.83;;;;;;;;;;628021;23;1009;-78
2023/07/23 00:55:59;;;;;;;5.70;2.90;;;;;;;;;;628412;23;1303;-78
2023/07/23 00:56:14;;;;;;;6.15;3.00;;;;;;;;;;628819;23;1219;-78
2023/07/23 00:56:30;;;;;;;5.47;2.93;;;;;;;;;;629026;23;1062;-78
2023/07/23 00:56:47;;;;;;;6.22;3.10;;;;;;;;;;628962;23;978;-78
2023/07/23 00:57:04;;;;;;;6.43;3.10;;;;;;;;;;627061;23;1287;-77
2023/07/23 00:57:20;;;;;;;4.53;2.95;;;;;;;;;;625180;23;1370;-78
2023/07/23 00:57:35;;;;;;;3.97;3.00;;;;;;;;;;621615;23;1326;-78
2023/07/23 00:57:50;;;;;;;5.10;3.00;;;;;;;;;;623127;23;1189;-78
2023/07/23 00:58:06;;;;;;;4.30;2.90;;;;;;;;;;623393;23;1132;-78
2023/07/23 00:58:22;;;;;;;3.85;3.00;;;;;;;;;;623172;23;1185;-77
2023/07/23 00:58:37;;;;;;;4.75;3.00;;;;;;;;;;625095;23;890;-77
2023/07/23 00:58:53;;;;;;;4.03;2.80;;;;;;;;;;623285;23;1285;-78
2023/07/23 00:59:08;;;;;;;4.53;3.00;;;;;;;;;;623223;23;1206;-78
2023/07/23 00:59:23;;;;;;;4.50;3.00;;;;;;;;;;625271;23;926;-78
2023/07/23 00:59:39;;;;;;;3.93;2.90;;;;;;;;;;622692;23;1373;-78
2023/07/23 00:59:56;;;;;;;4.75;2.97;;;;;;;;;;625304;23;1209;-78
2023/07/23 01:00:12;;;;;;;5.00;2.90;;;;;;;;;;621074;23;1145;-78
2023/07/23 01:00:27;;;;;;;4.55;3.03;;;;;;;;;;624946;23;834;-78
2023/07/23 01:00:43;;;;;;;3.87;3.03;;;;;;;;;;624875;23;768;-78
2023/07/23 01:00:58;;;;;;;4.15;3.08;;;;;;;;;;626193;23;927;-78
2023/07/23 01:01:14;;;;;;;3.90;3.03;;;;;;;;;;628176;23;954;-78
2023/07/23 01:01:30;;;;;;;3.42;2.90;;;;;;;;;;629061;23;863;-78
2023/07/23 01:01:45;;;;;;;5.00;3.00;;;;;;;;;;630446;23;1347;-78
2023/07/23 01:02:01;;;;;;;6.73;3.03;;;;;;;;;;632374;23;945;-79
2023/07/23 01:02:17;;;;;;;6.75;3.00;;;;;;;;;;634735;23;968;-78
2023/07/23 01:02:32;;;;;;;5.10;3.03;;;;;;;;;;630964;23;1274;-77
2023/07/23 01:02:48;;;;;;;4.30;3.00;;;;;;;;;;631605;23;1326;-77
2023/07/23 01:03:03;;;;;;;3.20;2.90;;;;;;;;;;630727;23;1334;-78
2023/07/23 01:03:18;;;;;;;4.07;2.83;;;;;;;;;;631146;23;941;-78
2023/07/23 01:03:34;;;;;;;5.70;3.00;;;;;;;;;;631874;23;808;-78
2023/07/23 01:03:52;;;;;;;4.70;3.17;;;;;;;;;;628125;23;1429;-77
2023/07/23 01:04:07;;;;;;;5.03;3.00;;;;;;;;;;627888;23;1627;-78
2023/07/23 01:04:23;;;;;;;5.30;2.90;;;;;;;;;;629082;23;768;-77
2023/07/23 01:04:38;;;;;;;4.00;2.92;;;;;;;;;;628551;23;1140;-78
2023/07/23 01:04:55;;;;;;;4.10;2.73;;;;;;;;;;627679;23;1312;-78
2023/07/23 01:05:11;;;;;;;4.82;2.72;;;;;;;;;;624808;23;1022;-79
2023/07/23 01:05:27;;;;;;;4.35;2.90;;;;;;;;;;625420;23;1326;-77
2023/07/23 01:05:45;;;;;;;3.85;3.13;;;;;;;;;;627097;23;844;-78
2023/07/23 01:06:03;;;;;;;4.57;2.97;;;;;;;;;;625246;23;1434;-78
2023/07/23 01:06:19;;;;;;;4.72;2.80;;;;;;;;;;624434;23;828;-77
2023/07/23 01:06:37;;;;;;;4.47;2.90;;;;;;;;;;627666;23;1572;-77
2023/07/23 01:06:54;;;;;;;4.15;2.83;;;;;;;;;;625318;23;1070;-77
2023/07/23 01:07:10;;;;;;;4.53;3.00;;;;;;;;;;627150;23;903;-78
2023/07/23 01:07:29;;;;;;;4.05;3.00;;;;;;;;;;629970;23;1910;-78
2023/07/23 01:07:46;;;;;;;3.50;3.00;;;;;;;;;;630534;23;1180;-77
2023/07/23 01:08:03;;;;;;;4.10;2.90;;;;;;;;;;627877;23;1390;-76
2023/07/23 01:08:20;;;;;;;3.93;2.77;;;;;;;;;;628220;23;827;-78
2023/07/23 01:08:36;;;;;;;4.05;2.97;;;;;;;;;;627551;23;922;-77
2023/07/23 01:08:55;;;;;;;4.47;3.00;;;;;;;;;;627138;23;1429;-77
2023/07/23 01:09:11;;;;;;;4.32;3.15;;;;;;;;;;628570;23;886;-78
2023/07/23 01:09:27;;;;;;;5.25;3.13;;;;;;;;;;624629;23;1311;-77
2023/07/23 01:09:43;;;;;;;4.22;3.00;;;;;;;;;;627030;23;1153;-77
2023/07/23 01:10:02;;;;;;;4.35;2.92;;;;;;;;;;629421;23;816;-78
2023/07/23 01:10:19;;;;;;;5.43;3.08;;;;;;;;;;627667;23;1401;-77
2023/07/23 01:10:35;;;;;;;5.53;2.90;;;;;;;;;;627407;23;1002;-78
2023/07/23 01:10:51;;;;;;;5.28;2.80;;;;;;;;;;624734;23;1385;-78
2023/07/23 01:11:07;;;;;;;5.70;3.10;;;;;;;;;;624622;23;1613;-78
2023/07/23 01:11:24;;;;;;;5.07;3.05;;;;;;;;;;624100;23;1255;-79
2023/07/23 01:11:39;;;;;;;4.78;2.90;;;;;;;;;;624316;23;1255;-77
2023/07/23 01:11:55;;;;;;;5.35;2.70;;;;;;;;;;624645;23;1331;-78
2023/07/23 01:12:11;;;;;;;5.43;2.80;;;;;;;;;;624329;23;804;-77
2023/07/23 01:12:27;;;;;;;4.65;2.95;;;;;;;;;;624999;23;1439;-78
2023/07/23 01:12:43;;;;;;;3.20;2.80;;;;;;;;;;625484;23;1236;-77
2023/07/23 01:12:58;;;;;;;4.80;2.95;;;;;;;;;;628442;23;1279;-78
2023/07/23 01:13:15;;;;;;;6.30;3.00;;;;;;;;;;628186;23;863;-78
2023/07/23 01:13:31;;;;;;;5.43;2.90;;;;;;;;;;624490;23;1420;-78
2023/07/23 01:13:46;;;;;;;4.20;2.90;;;;;;;;;;626215;23;978;-78
2023/07/23 01:14:05;;;;;;;3.08;2.78;;;;;;;;;;628408;23;824;-77
2023/07/23 01:14:20;;;;;;;3.70;2.88;;;;;;;;;;627756;23;1238;-78
2023/07/23 01:14:36;;;;;;;4.13;2.90;;;;;;;;;;628537;23;808;-77
2023/07/23 01:14:51;;;;;;;5.07;3.00;;;;;;;;;;626967;23;1257;-78
2023/07/23 01:15:07;;;;;;;6.45;3.10;;;;;;;;;;627560;23;1478;-79
2023/07/23 01:15:23;;;;;;;5.00;3.03;;;;;;;;;;628924;23;1191;-78
2023/07/23 01:15:38;;;;;;;5.27;3.03;;;;;;;;;;627872;23;1279;-78
2023/07/23 01:15:56;;;;;;;8.52;3.20;;;;;;;;;;627093;23;1294;-78
2023/07/23 01:16:12;;;;;;;6.70;2.92;;;;;;;;;;626835;23;1266;-77
2023/07/23 01:16:27;;;;;;;4.50;3.00;;;;;;;;;;626218;23;1246;-78
2023/07/23 01:16:43;;;;;;;4.33;3.00;;;;;;;;;;628315;23;1053;-77
2023/07/23 01:17:00;;;;;;;4.07;2.90;;;;;;;;;;624713;23;1755;-77
2023/07/23 01:17:17;;;;;;;3.70;2.92;;;;;;;;;;624968;23;1238;-76
2023/07/23 01:17:35;;;;;;;4.80;2.92;;;;;;;;;;628807;23;1367;-77
2023/07/23 01:17:50;;;;;;;4.43;2.85;;;;;;;;;;628140;23;1053;-77
2023/07/23 01:18:06;;;;;;;4.97;3.00;;;;;;;;;;628420;23;1178;-78
2023/07/23 01:18:21;;;;;;;4.87;2.83;;;;;;;;;;627788;23;1154;-77
2023/07/23 01:18:38;;;;;;;5.07;2.80;;;;;;;;;;626055;23;1387;-78
2023/07/23 01:18:54;;;;;;;4.88;3.00;;;;;;;;;;627955;23;1248;-78
2023/07/23 01:19:11;;;;;;;4.47;3.15;;;;;;;;;;628760;23;1038;-77
2023/07/23 01:19:26;;;;;;;3.92;3.05;;;;;;;;;;626142;23;1500;-77
2023/07/23 01:19:42;;;;;;;3.90;3.03;;;;;;;;;;623724;23;1301;-79
2023/07/23 01:20:04;;;;;;;4.50;3.20;;;;;;;;;;624307;23;906;-80
2023/07/23 01:20:20;;;;;;;5.10;3.13;;;;;;;;;;622876;23;1475;-78
2023/07/23 01:20:35;;;;;;;4.27;3.10;;;;;;;;;;624911;23;1279;-77
2023/07/23 01:20:50;;;;;;;3.80;2.90;;;;;;;;;;622665;23;1167;-78
2023/07/23 01:21:06;;;;;;;3.58;3.00;;;;;;;;;;621394;23;1258;-78
2023/07/23 01:21:22;;;;;;;4.30;3.07;;;;;;;;;;623829;23;881;-78
2023/07/23 01:21:37;;;;;;;5.47;2.90;;;;;;;;;;624118;23;1168;-79
2023/07/23 01:21:57;;;;;;;5.77;2.77;;;;;;;;;;621962;23;1283;-78
2023/07/23 01:22:12;;;;;;;4.90;2.85;;;;;;;;;;622813;23;1325;-78
2023/07/23 01:22:28;;;;;;;4.50;2.83;;;;;;;;;;624513;23;990;-77
2023/07/23 01:22:43;;;;;;;4.30;2.73;;;;;;;;;;627178;23;914;-78
2023/07/23 01:22:58;;;;;;;4.20;2.73;;;;;;;;;;627320;23;1103;-77
2023/07/23 01:23:13;;;;;;;5.13;2.73;;;;;;;;;;625720;23;1237;-77
2023/07/23 01:23:30;;;;;;;4.53;2.88;;;;;;;;;;624457;23;1224;-78
2023/07/23 01:23:46;;;;;;;5.35;3.20;;;;;;;;;;627019;23;1386;-77
2023/07/23 01:24:01;;;;;;;5.27;3.10;;;;;;;;;;625641;23;1159;-78
2023/07/23 01:24:16;;;;;;;4.00;2.90;;;;;;;;;;628399;23;967;-78
2023/07/23 01:24:34;;;;;;;4.00;2.90;;;;;;;;;;625169;23;1152;-78
2023/07/23 01:24:49;;;;;;;4.97;3.00;;;;;;;;;;622011;23;1380;-78
2023/07/23 01:25:05;;;;;;;5.40;3.00;;;;;;;;;;623693;23;989;-78
2023/07/23 01:25:20;;;;;;;5.28;2.90;;;;;;;;;;625174;23;996;-77
2023/07/23 01:25:35;;;;;;;3.73;3.00;;;;;;;;;;627112;23;805;-78
2023/07/23 01:25:50;;;;;;;4.00;3.00;;;;;;;;;;625681;23;1322;-78
2023/07/23 01:26:09;;;;;;;4.03;2.97;;;;;;;;;;624381;23;1180;-78
2023/07/23 01:26:24;;;;;;;4.45;3.17;;;;;;;;;;623384;23;1048;-77
2023/07/23 01:26:40;;;;;;;4.45;3.17;;;;;;;;;;626366;23;1333;-78
2023/07/23 01:26:56;;;;;;;3.60;3.00;;;;;;;;;;627965;23;812;-80
2023/07/23 01:27:11;;;;;;;3.92;3.22;;;;;;;;;;625320;23;1241;-79
2023/07/23 01:27:26;;;;;;;4.03;3.27;;;;;;;;;;622597;23;1903;-79
2023/07/23 01:27:42;;;;;;;4.57;3.10;;;;;;;;;;624168;23;809;-79
2023/07/23 01:27:57;;;;;;;5.85;3.08;;;;;;;;;;623873;23;1240;-79
2023/07/23 01:28:12;;;;;;;5.03;3.00;;;;;;;;;;622152;23;1247;-79
2023/07/23 01:28:27;;;;;;;3.77;2.80;;;;;;;;;;622740;23;1078;-77
2023/07/23 01:28:43;;;;;;;4.17;2.70;;;;;;;;;;622231;23;1343;-79
2023/07/23 01:28:58;;;;;;;4.15;2.92;;;;;;;;;;624814;23;966;-78
2023/07/23 01:29:13;;;;;;;3.47;3.00;;;;;;;;;;625145;23;1290;-78
2023/07/23 01:29:29;;;;;;;5.30;3.00;;;;;;;;;;624770;23;796;-79
2023/07/23 01:29:44;;;;;;;5.88;3.08;;;;;;;;;;628588;23;1341;-78
2023/07/23 01:29:59;;;;;;;5.17;3.00;;;;;;;;;;628115;23;784;-79
2023/07/23 01:30:15;;;;;;;4.67;2.73;;;;;;;;;;628660;23;901;-79
2023/07/23 01:30:30;;;;;;;4.82;2.63;;;;;;;;;;625511;23;1341;-78
2023/07/23 01:30:45;;;;;;;4.93;2.93;;;;;;;;;;626015;23;1276;-79
2023/07/23 01:31:01;;;;;;;5.27;3.00;;;;;;;;;;625810;23;1484;-78
2023/07/23 01:31:16;;;;;;;5.37;2.93;;;;;;;;;;628654;23;919;-79
2023/07/23 01:31:31;;;;;;;4.03;3.13;;;;;;;;;;628327;23;843;-78
2023/07/23 01:31:46;;;;;;;4.37;3.20;;;;;;;;;;631155;23;819;-78
2023/07/23 01:32:02;;;;;;;4.67;3.10;;;;;;;;;;631661;23;1267;-78
2023/07/23 01:32:17;;;;;;;5.68;3.17;;;;;;;;;;631706;23;1474;-79
2023/07/23 01:32:33;;;;;;;5.60;3.13;;;;;;;;;;632740;23;942;-77
2023/07/23 01:32:49;;;;;;;4.63;2.88;;;;;;;;;;631165;23;1414;-78
2023/07/23 01:33:05;;;;;;;5.68;3.05;;;;;;;;;;631569;23;922;-78
2023/07/23 01:33:22;;;;;;;5.63;3.15;;;;;;;;;;630894;23;816;-78
2023/07/23 01:33:41;;;;;;;4.72;3.13;;;;;;;;;;628264;23;1137;-77
2023/07/23 01:33:57;;;;;;;4.40;3.00;;;;;;;;;;624563;23;1223;-78
2023/07/23 01:34:12;;;;;;;5.10;2.93;;;;;;;;;;624569;23;1169;-78
2023/07/23 01:34:29;;;;;;;4.88;2.80;;;;;;;;;;624292;23;1178;-77
2023/07/23 01:34:45;;;;;;;4.07;2.72;;;;;;;;;;626847;23;906;-78
2023/07/23 01:35:09;;;;;;;4.10;2.87;;;;;;;;;;627006;23;1173;-79
2023/07/23 01:35:24;;;;;;;5.60;2.80;;;;;;;;;;627979;23;1254;-78
2023/07/23 01:35:39;;;;;;;4.20;2.90;;;;;;;;;;628646;23;958;-78
2023/07/23 01:35:59;;;;;;;4.30;3.03;;;;;;;;;;629944;23;1195;-78
2023/07/23 01:36:14;;;;;;;6.28;3.28;;;;;;;;;;627585;23;890;-78
2023/07/23 01:36:30;;;;;;;4.90;3.27;;;;;;;;;;629465;23;985;-78
2023/07/23 01:36:46;;;;;;;4.60;2.93;;;;;;;;;;628613;23;1128;-78
2023/07/23 01:37:01;;;;;;;4.60;2.80;;;;;;;;;;625223;23;1318;-78
2023/07/23 01:37:17;;;;;;;5.47;2.95;;;;;;;;;;627414;23;888;-78
2023/07/23 01:37:32;;;;;;;6.03;3.00;;;;;;;;;;628846;23;1187;-78
2023/07/23 01:37:49;;;;;;;4.57;3.00;;;;;;;;;;627644;23;868;-78
2023/07/23 01:38:05;;;;;;;4.28;2.97;;;;;;;;;;628723;23;1022;-78
2023/07/23 01:38:22;;;;;;;3.95;2.70;;;;;;;;;;625125;23;1330;-78
2023/07/23 01:38:37;;;;;;;4.03;2.83;;;;;;;;;;624059;23;1330;-77
2023/07/23 01:38:53;;;;;;;4.03;3.03;;;;;;;;;;625741;23;1208;-78
2023/07/23 01:39:08;;;;;;;3.80;3.07;;;;;;;;;;625418;23;1211;-78
2023/07/23 01:39:24;;;;;;;4.90;3.10;;;;;;;;;;623148;23;1345;-78
2023/07/23 01:39:39;;;;;;;4.67;2.93;;;;;;;;;;625779;23;847;-78
2023/07/23 01:39:54;;;;;;;4.63;2.90;;;;;;;;;;622246;23;1193;-78
2023/07/23 01:40:10;;;;;;;4.73;3.00;;;;;;;;;;622707;23;1555;-78
2023/07/23 01:40:26;;;;;;;4.90;2.83;;;;;;;;;;622104;23;1324;-78